Time;durP1;ratioP1;P1;durP2;ratioP2;P2;SDS_P1;SDS_P2;PMS_P1;PMS_P2;Temp;Humidity;BMP_temperature;BMP_pressure;BME280_temperature;BME280_humidity;BME280_pressure;Samples;Min_cycle;Max_cycle;Signal;HPM_P1;HPM_P2
2022/01/31 00:00:50;;;;;;;;;35.50;32.25;;;;;3.86;76.38;101808.44;5059005;28;45442;-74
2022/01/31 00:03:16;;;;;;;;;37.25;31.50;;;;;3.87;76.68;101799.88;5058871;28;45497;-74
2022/01/31 00:05:41;;;;;;;;;31.75;30.00;;;;;4.02;76.61;101820.84;5058939;28;45307;-74
2022/01/31 00:08:07;;;;;;;;;32.50;29.00;;;;;4.15;76.53;101838.19;5057444;28;45977;-74
2022/01/31 00:10:33;;;;;;;;;43.00;35.00;;;;;4.18;75.66;101841.03;5058616;28;45396;-74
2022/01/31 00:13:10;;;;;;;;;37.00;29.75;;;;;3.93;75.63;101790.00;5058346;28;45445;-73
2022/01/31 00:15:41;;;;;;;;;47.50;39.50;;;;;4.21;75.07;101830.91;5058789;28;45638;-73
2022/01/31 00:18:07;;;;;;;;;51.00;42.00;;;;;4.21;75.53;101840.34;5058613;28;45451;-74
2022/01/31 00:20:34;;;;;;;;;40.00;31.00;;;;;4.18;75.92;101834.16;5058527;28;45453;-73
2022/01/31 00:23:01;;;;;;;;;34.75;27.75;;;;;4.23;75.52;101833.59;5058475;28;45458;-73
2022/01/31 00:25:27;;;;;;;;;31.25;27.25;;;;;4.18;75.25;101829.00;5058070;28;46075;-73
2022/01/31 00:27:52;;;;;;;;;28.75;27.25;;;;;4.24;75.66;101835.41;5057945;28;45465;-74
2022/01/31 00:30:18;;;;;;;;;41.75;34.25;;;;;4.15;75.16;101812.34;5058030;28;45468;-74
2022/01/31 00:32:43;;;;;;;;;26.50;23.00;;;;;4.17;75.44;101803.91;5058194;28;45227;-74
2022/01/31 00:35:10;;;;;;;;;29.75;25.25;;;;;4.25;74.95;101825.16;5058371;28;45353;-74
2022/01/31 00:37:36;;;;;;;;;32.50;26.00;;;;;4.18;74.29;101808.31;5058432;28;45365;-73
2022/01/31 00:40:03;;;;;;;;;30.00;26.00;;;;;4.22;75.04;101803.34;5057814;28;45358;-74
2022/01/31 00:42:30;;;;;;;;;25.75;22.00;;;;;4.22;75.06;101796.50;5058832;28;45458;-73
2022/01/31 00:45:07;;;;;;;;;25.25;22.75;;;;;4.25;75.31;101794.13;5057340;28;45460;-74
2022/01/31 00:47:33;;;;;;;;;33.00;27.25;;;;;4.25;75.30;101782.91;5058513;28;45731;-73
2022/01/31 00:50:12;;;;;;;;;36.75;30.50;;;;;4.27;74.91;101766.69;5058345;28;46007;-73
2022/01/31 00:52:41;;;;;;;;;41.00;29.25;;;;;4.28;75.54;101763.34;5058823;28;45568;-75
2022/01/31 00:55:08;;;;;;;;;33.75;28.25;;;;;4.30;75.59;101755.69;5059207;28;45319;-72
2022/01/31 00:57:34;;;;;;;;;35.50;29.75;;;;;4.32;76.25;101746.38;5058600;28;45638;-73
2022/01/31 01:00:00;;;;;;;;;33.00;30.00;;;;;4.07;75.99;101703.13;5058335;28;45424;-73
2022/01/31 01:02:26;;;;;;;;;34.75;27.00;;;;;4.32;76.11;101742.09;5058577;28;45159;-73
2022/01/31 01:04:53;;;;;;;;;31.50;26.75;;;;;4.34;75.88;101732.75;5058741;28;45571;-73
2022/01/31 01:07:22;;;;;;;;;40.50;32.75;;;;;4.35;76.07;101725.88;5058449;28;45350;-72
2022/01/31 01:09:48;;;;;;;;;34.25;28.00;;;;;4.31;76.19;101721.25;5058210;28;45380;-73
2022/01/31 01:12:15;;;;;;;;;34.50;31.00;;;;;4.19;76.06;101693.69;5058004;28;45499;-73
2022/01/31 01:14:42;;;;;;;;;32.00;27.50;;;;;4.34;76.04;101716.34;5058545;28;45414;-72
2022/01/31 01:17:08;;;;;;;;;32.00;30.50;;;;;4.36;76.37;101720.81;5058444;28;45326;-72
2022/01/31 01:19:33;;;;;;;;;36.25;33.50;;;;;4.37;76.12;101717.44;5057801;28;45497;-73
2022/01/31 01:21:59;;;;;;;;;33.50;26.25;;;;;4.38;76.61;101729.59;5058040;28;45421;-73
2022/01/31 01:24:25;;;;;;;;;37.00;31.75;;;;;4.35;75.97;101738.81;5058226;28;45379;-72
2022/01/31 01:26:51;;;;;;;;;33.00;28.00;;;;;4.41;76.31;101747.03;5057870;28;45539;-74
2022/01/31 01:29:17;;;;;;;;;27.50;25.50;;;;;4.36;75.74;101741.53;5057807;28;45476;-73
2022/01/31 01:31:46;;;;;;;;;31.25;28.50;;;;;4.36;76.31;101740.63;5058044;28;45484;-73
2022/01/31 01:34:13;;;;;;;;;31.00;26.50;;;;;4.31;76.08;101729.91;5058041;28;45494;-73
2022/01/31 01:36:39;;;;;;;;;29.25;27.50;;;;;4.44;75.92;101749.84;5057956;28;46104;-73
2022/01/31 01:39:05;;;;;;;;;37.00;32.00;;;;;4.35;76.23;101726.78;5057881;28;45525;-73
2022/01/31 01:41:32;;;;;;;;;33.00;28.00;;;;;4.42;76.05;101753.09;5058194;28;45421;-73
2022/01/31 01:43:57;;;;;;;;;34.50;24.75;;;;;4.38;76.62;101746.81;5057947;28;45234;-73
2022/01/31 01:46:23;;;;;;;;;20.25;14.50;;;;;4.49;75.90;101766.59;5057537;28;46088;-73
2022/01/31 01:48:49;;;;;;;;;35.00;30.00;;;;;4.27;76.62;101730.47;5057366;28;46286;-73
2022/01/31 01:51:15;;;;;;;;;39.00;31.50;;;;;4.51;76.43;101767.63;5057698;28;45288;-73
2022/01/31 01:53:41;;;;;;;;;28.75;26.25;;;;;4.53;76.46;101783.25;5058181;28;45512;-73
2022/01/31 01:56:07;;;;;;;;;28.25;27.00;;;;;4.55;76.18;101789.44;5057576;28;45391;-73
2022/01/31 01:58:41;;;;;;;;;24.75;23.50;;;;;4.56;76.28;101797.34;5057469;28;45440;-74
2022/01/31 02:01:08;;;;;;;;;33.50;30.75;;;;;4.57;76.11;101796.53;5057520;28;45484;-73
2022/01/31 02:03:36;;;;;;;;;25.50;20.75;;;;;4.57;76.29;101785.28;5057669;28;45405;-73
2022/01/31 02:06:02;;;;;;;;;28.50;27.00;;;;;4.56;75.75;101779.22;5057226;28;45467;-73
2022/01/31 02:08:28;;;;;;;;;28.00;25.25;;;;;4.42;76.03;101760.84;5057139;28;45252;-74
2022/01/31 02:10:55;;;;;;;;;31.75;25.00;;;;;4.63;76.01;101803.84;5057305;28;45536;-74
2022/01/31 02:13:20;;;;;;;;;25.50;20.75;;;;;4.66;76.30;101809.28;5057509;28;45413;-74
2022/01/31 02:15:52;;;;;;;;;26.25;21.50;;;;;4.68;76.07;101819.75;5057198;28;46137;-74
2022/01/31 02:18:21;;;;;;;;;24.25;22.00;;;;;4.66;76.00;101814.44;5057329;28;45515;-75
2022/01/31 02:20:47;;;;;;;;;32.75;27.25;;;;;4.71;75.86;101830.31;5057410;28;45326;-73
2022/01/31 02:23:14;;;;;;;;;28.50;24.00;;;;;4.71;76.20;101832.91;5057752;28;45291;-73
2022/01/31 02:26:03;;;;;;;;;25.00;18.25;;;;;4.71;75.83;101849.31;5057012;28;46142;-73
2022/01/31 02:28:32;;;;;;;;;31.50;27.50;;;;;4.61;75.82;101841.66;5056639;28;45499;-73
2022/01/31 02:30:58;;;;;;;;;30.50;24.75;;;;;4.76;75.93;101872.97;5056320;28;45485;-74
2022/01/31 02:33:25;;;;;;;;;26.50;25.75;;;;;4.51;75.66;101834.88;5057221;28;45405;-73
2022/01/31 02:35:56;;;;;;;;;28.75;25.25;;;;;4.75;75.73;101881.53;5057032;28;46274;-74
2022/01/31 02:38:21;;;;;;;;;32.00;29.00;;;;;4.74;75.84;101871.97;5057205;28;45458;-74
2022/01/31 02:40:48;;;;;;;;;29.25;24.50;;;;;4.76;75.54;101872.97;5056880;28;45657;-74
2022/01/31 02:43:50;;;;;;;;;25.50;24.50;;;;;4.75;76.10;101903.13;5055832;28;45529;-74
2022/01/31 02:46:16;;;;;;;;;29.25;25.50;;;;;4.73;75.53;101903.81;5052986;28;45471;-73
2022/01/31 02:48:41;;;;;;;;;37.25;35.50;;;;;4.76;75.80;101909.22;5057093;28;45216;-73
2022/01/31 02:51:10;;;;;;;;;24.50;23.50;;;;;4.68;75.68;101895.69;5056939;28;45588;-73
2022/01/31 02:53:41;;;;;;;;;32.75;25.00;;;;;4.72;75.50;101910.69;5057157;28;45351;-73
2022/01/31 02:56:07;;;;;;;;;25.50;21.25;;;;;4.74;75.24;101913.38;5056814;28;45468;-72
2022/01/31 02:58:33;;;;;;;;;23.50;18.75;;;;;4.58;75.81;101886.34;5056751;28;45296;-73
2022/01/31 03:00:59;;;;;;;;;27.00;21.75;;;;;4.77;75.31;101923.94;5056957;28;45235;-72
2022/01/31 03:03:26;;;;;;;;;25.25;22.50;;;;;4.75;75.74;101884.09;5057538;28;45325;-73
2022/01/31 03:05:52;;;;;;;;;23.25;19.75;;;;;4.67;75.39;101874.88;5056712;28;45497;-73
2022/01/31 03:08:18;;;;;;;;;17.50;16.25;;;;;4.82;75.03;101898.44;5056735;28;45336;-73
2022/01/31 03:10:44;;;;;;;;;18.00;17.50;;;;;4.82;75.67;101907.09;5056983;28;45503;-73
2022/01/31 03:13:10;;;;;;;;;14.75;14.25;;;;;4.84;75.13;101889.09;5056775;28;45418;-72
2022/01/31 03:15:35;;;;;;;;;18.00;15.75;;;;;4.84;75.03;101874.44;5056452;28;45367;-73
2022/01/31 03:18:02;;;;;;;;;19.00;16.00;;;;;4.85;74.96;101875.34;5056458;28;45464;-72
2022/01/31 03:20:28;;;;;;;;;22.25;18.75;;;;;4.83;75.63;101870.03;5056526;28;46140;-72
2022/01/31 03:22:54;;;;;;;;;14.25;13.50;;;;;4.75;75.38;101856.53;5057035;28;45301;-72
2022/01/31 03:25:20;;;;;;;;;18.25;16.00;;;;;4.86;75.34;101867.69;5056183;28;45859;-73
2022/01/31 03:27:48;;;;;;;;;20.75;15.75;;;;;4.87;75.50;101866.88;5056486;28;45482;-72
2022/01/31 03:30:16;;;;;;;;;17.00;15.25;;;;;4.87;75.31;101872.06;5056661;28;45433;-73
2022/01/31 03:32:42;;;;;;;;;16.50;15.00;;;;;4.89;75.06;101878.25;5056806;28;45342;-72
2022/01/31 03:35:08;;;;;;;;;22.00;18.00;;;;;4.91;75.36;101868.91;5056211;28;45991;-72
2022/01/31 03:37:35;;;;;;;;;15.50;14.25;;;;;4.83;75.21;101848.44;5056438;28;45484;-73
2022/01/31 03:40:01;;;;;;;;;17.25;15.25;;;;;4.91;75.19;101866.31;5056570;28;45426;-73
2022/01/31 03:42:26;;;;;;;;;17.25;13.75;;;;;4.92;75.14;101872.44;5055352;27;45568;-73
2022/01/31 03:44:53;;;;;;;;;18.25;14.00;;;;;4.93;75.40;101859.59;5059673;28;45501;-74
2022/01/31 03:47:22;;;;;;;;;12.25;10.50;;;;;4.91;74.96;101860.25;5075260;28;45409;-74
2022/01/31 03:49:51;;;;;;;;;12.50;10.75;;;;;4.81;75.07;101837.06;5059647;28;45414;-74
2022/01/31 03:52:17;;;;;;;;;12.00;10.50;;;;;4.97;75.23;101848.69;5060121;28;45513;-74
2022/01/31 03:54:44;;;;;;;;;15.00;12.00;;;;;4.97;75.42;101840.91;5059387;28;46076;-74
2022/01/31 03:57:10;;;;;;;;;13.25;11.50;;;;;4.97;74.95;101851.28;5059474;28;45436;-73
2022/01/31 03:59:36;;;;;;;;;11.25;10.00;;;;;4.97;75.56;101840.91;5059531;28;45390;-74
2022/01/31 04:02:04;;;;;;;;;12.00;10.75;;;;;4.94;75.31;101812.19;5059464;28;45434;-74
2022/01/31 04:04:30;;;;;;;;;12.00;11.00;;;;;4.78;75.08;101773.91;5059461;28;46207;-73
2022/01/31 04:06:55;;;;;;;;;13.75;10.75;;;;;4.88;74.60;101796.22;5059370;28;45291;-73
2022/01/31 04:09:21;;;;;;;;;13.75;10.25;;;;;4.91;74.98;101814.53;5059405;28;45445;-73
2022/01/31 04:11:48;;;;;;;;;11.00;8.00;;;;;4.82;75.61;101806.13;5059812;28;45501;-73
2022/01/31 04:14:13;;;;;;;;;8.50;7.50;;;;;4.93;75.27;101831.13;5059233;28;45957;-73
2022/01/31 04:16:39;;;;;;;;;10.00;8.25;;;;;4.94;75.72;101837.19;5058992;28;45295;-73
2022/01/31 04:19:05;;;;;;;;;9.00;7.25;;;;;4.84;75.50;101825.25;5059210;28;45221;-73
2022/01/31 04:21:31;;;;;;;;;11.25;9.25;;;;;4.98;75.16;101844.41;5059429;28;45313;-73
2022/01/31 04:23:56;;;;;;;;;9.00;8.00;;;;;5.03;75.35;101849.91;5059096;28;45432;-73
2022/01/31 04:26:22;;;;;;;;;7.50;7.00;;;;;5.04;74.79;101852.59;5058943;28;45485;-73
2022/01/31 04:28:51;;;;;;;;;10.00;7.00;;;;;5.01;74.86;101842.00;5058058;28;45570;-73
2022/01/31 04:33:47;;;;;;;;;5.50;5.25;;;;;5.05;75.07;101843.16;5058908;28;45361;-73
2022/01/31 04:36:14;;;;;;;;;7.00;7.00;;;;;4.99;74.72;101830.63;5058807;28;45174;-73
2022/01/31 04:38:47;;;;;;;;;7.50;6.00;;;;;5.16;74.54;101861.28;5058895;28;45351;-73
2022/01/31 04:41:13;;;;;;;;;6.00;4.50;;;;;5.18;74.61;101843.25;5057999;28;45595;-74
2022/01/31 04:43:39;;;;;;;;;6.25;4.50;;;;;5.20;74.85;101843.38;5058668;28;45404;-75
2022/01/31 04:46:07;;;;;;;;;5.50;3.00;;;;;5.20;74.30;101841.69;5058579;28;45332;-74
2022/01/31 04:48:34;;;;;;;;;5.00;5.00;;;;;5.21;74.22;101833.09;5058736;28;45295;-73
2022/01/31 04:51:01;;;;;;;;;4.00;3.00;;;;;5.26;73.79;101849.88;5058700;28;45470;-74
2022/01/31 04:53:27;;;;;;;;;6.00;5.50;;;;;5.12;74.10;101822.09;5056698;28;46492;-73
2022/01/31 04:55:53;;;;;;;;;67.25;48.50;;;;;5.27;73.88;101850.78;5057598;28;45489;-74
2022/01/31 04:58:23;;;;;;;;;4.50;3.00;;;;;5.15;73.94;101835.25;5059034;28;45445;-74
2022/01/31 05:00:51;;;;;;;;;6.75;6.25;;;;;5.28;73.89;101863.84;5059363;28;45457;-74
2022/01/31 05:03:19;;;;;;;;;5.00;5.00;;;;;5.31;74.20;101866.69;5057133;28;47299;-73
2022/01/31 05:05:45;;;;;;;;;5.25;5.00;;;;;5.33;73.77;101865.09;5057096;28;45371;-74
2022/01/31 05:08:12;;;;;;;;;3.00;3.00;;;;;5.33;74.08;101870.28;5058710;28;45483;-74
2022/01/31 05:10:44;;;;;;;;;4.00;4.00;;;;;5.30;73.77;101854.50;5058863;28;45452;-73
2022/01/31 05:13:11;;;;;;;;;2.75;2.75;;;;;5.37;74.29;101869.72;5058098;28;45523;-74
2022/01/31 05:15:37;;;;;;;;;6.00;6.00;;;;;5.36;74.55;101870.47;5073983;28;45420;-73
2022/01/31 05:18:03;;;;;;;;;3.00;3.00;;;;;5.22;74.26;101850.47;5058622;28;45392;-73
2022/01/31 05:20:28;;;;;;;;;6.00;5.00;;;;;5.18;74.72;101841.56;5058478;28;45324;-74
2022/01/31 05:22:54;;;;;;;;;5.75;3.50;;;;;5.33;75.07;101869.34;5058189;28;45291;-74
2022/01/31 05:25:20;;;;;;;;;5.75;4.50;;;;;5.33;74.78;101867.69;5058412;28;45610;-73
2022/01/31 05:27:45;;;;;;;;;7.00;7.00;;;;;5.33;75.18;101875.47;5056921;28;46087;-74
2022/01/31 05:30:11;;;;;;;;;7.00;5.50;;;;;5.38;75.00;101889.63;5058429;28;45476;-73
2022/01/31 05:32:37;;;;;;;;;12.00;11.00;;;;;5.40;75.57;101896.63;5057640;28;46025;-73
2022/01/31 05:35:04;;;;;;;;;16.75;16.00;;;;;5.15;75.52;101850.78;5058124;28;45279;-74
2022/01/31 05:37:30;;;;;;;;;12.00;12.00;;;;;5.28;75.13;101873.31;5073835;28;45478;-74
2022/01/31 05:39:56;;;;;;;;;4.00;4.00;;;;;5.41;75.11;101891.53;5058194;28;45580;-74
2022/01/31 05:42:22;;;;;;;;;5.50;5.25;;;;;5.33;75.02;101866.75;5058093;28;45854;-73
2022/01/31 05:44:47;;;;;;;;;5.75;4.00;;;;;5.35;75.25;101876.47;5057888;28;45683;-73
2022/01/31 05:47:16;;;;;;;;;3.00;3.00;;;;;5.45;75.59;101910.81;5057944;28;45457;-74
2022/01/31 05:49:42;;;;;;;;;3.00;3.00;;;;;5.47;74.95;101901.44;5058173;28;45304;-74
2022/01/31 05:52:09;;;;;;;;;6.75;3.00;;;;;5.47;75.27;101901.44;5057711;28;45362;-74
2022/01/31 05:54:37;;;;;;;;;2.00;2.00;;;;;5.40;75.21;101889.75;5057787;28;45491;-74
2022/01/31 05:57:04;;;;;;;;;2.00;1.50;;;;;5.23;75.26;101854.84;5058046;28;45525;-74
2022/01/31 05:59:31;;;;;;;;;3.50;3.50;;;;;5.47;75.47;101891.09;5057971;28;45440;-74
2022/01/31 06:01:58;;;;;;;;;3.00;3.00;;;;;5.46;75.35;101912.63;5055997;28;48101;-74
2022/01/31 06:04:24;;;;;;;;;3.00;3.00;;;;;5.42;75.07;101916.69;5057609;28;45383;-74
2022/01/31 06:06:50;;;;;;;;;2.00;2.00;;;;;5.46;75.49;101934.25;5056777;28;45518;-74
2022/01/31 06:09:16;;;;;;;;;6.00;5.75;;;;;5.37;75.58;101907.66;5057741;28;45507;-74
2022/01/31 06:11:42;;;;;;;;;2.25;2.00;;;;;5.35;75.14;101891.09;5056428;28;46362;-75
2022/01/31 06:14:09;;;;;;;;;4.50;3.00;;;;;5.39;75.16;101882.75;5057568;28;45564;-74
2022/01/31 06:16:35;;;;;;;;;2.25;2.25;;;;;5.33;75.63;101870.28;5057509;28;46135;-74
2022/01/31 06:19:02;;;;;;;;;1.00;1.00;;;;;5.22;75.00;101870.28;5073038;28;45668;-74
2022/01/31 06:21:27;;;;;;;;;3.00;3.00;;;;;5.40;75.57;101912.19;5057349;28;45488;-74
2022/01/31 06:23:53;;;;;;;;;2.50;2.50;;;;;5.42;75.25;101926.16;5073150;28;45283;-73
2022/01/31 06:26:20;;;;;;;;;2.00;2.00;;;;;5.42;75.98;101931.34;5057546;28;45593;-74
2022/01/31 06:28:47;;;;;;;;;2.50;2.00;;;;;5.33;75.84;101916.00;5056223;28;45689;-73
2022/01/31 06:31:12;;;;;;;;;4.50;3.00;;;;;4.49;75.65;101765.72;5057025;28;45300;-72
2022/01/31 06:33:38;;;;;;;;;3.00;2.75;;;;;5.45;75.76;101941.91;5056914;28;45342;-73
2022/01/31 06:36:04;;;;;;;;;5.00;2.75;;;;;5.31;75.44;101915.91;5057408;28;45309;-73
2022/01/31 06:38:29;;;;;;;;;2.75;2.75;;;;;5.37;75.90;101921.53;5057372;28;45471;-73
2022/01/31 06:40:55;;;;;;;;;3.00;2.00;;;;;5.48;75.25;101931.78;5056958;28;47665;-73
2022/01/31 06:43:21;;;;;;;;;2.00;2.00;;;;;5.51;75.05;101929.38;5056229;28;45496;-73
2022/01/31 06:45:46;;;;;;;;;2.00;2.00;;;;;5.51;75.16;101919.03;5056129;28;45512;-73
2022/01/31 06:48:12;;;;;;;;;4.25;2.75;;;;;5.50;74.92;101930.19;5046824;28;45561;-72
2022/01/31 06:50:38;;;;;;;;;3.00;2.50;;;;;5.48;75.44;101927.50;5055706;28;45889;-72
2022/01/31 06:53:05;;;;;;;;;1.00;1.00;;;;;5.47;75.87;101924.78;5056168;28;45598;-73
2022/01/31 06:55:34;;;;;;;;;2.00;1.00;;;;;5.50;75.83;101938.88;5056261;28;45532;-73
2022/01/31 06:58:02;;;;;;;;;2.00;2.00;;;;;5.50;75.66;101936.28;5060538;28;45706;-73
2022/01/31 07:00:28;;;;;;;;;2.00;1.00;;;;;5.52;75.43;101944.16;5056185;28;45688;-73
2022/01/31 07:02:54;;;;;;;;;1.00;1.00;;;;;5.51;75.66;101940.69;5056251;28;45437;-73
2022/01/31 07:05:20;;;;;;;;;2.00;1.00;;;;;5.55;75.27;101955.66;5056371;28;45291;-73
2022/01/31 07:07:48;;;;;;;;;2.00;2.00;;;;;5.42;75.98;101931.34;5054926;28;45507;-72
2022/01/31 07:10:14;;;;;;;;;3.00;3.00;;;;;5.59;75.54;101961.97;5055709;28;45452;-73
2022/01/31 07:12:47;;;;;;;;;3.00;3.00;;;;;5.44;75.59;101932.34;5053264;28;45486;-73
2022/01/31 07:15:14;;;;;;;;;12.50;10.50;;;;;5.51;75.51;101939.75;5055407;28;45573;-73
2022/01/31 07:17:44;;;;;;;;;12.50;10.50;;;;;5.69;74.89;101966.13;5057969;28;45559;-73
2022/01/31 07:20:20;;;;;;;;;6.50;5.75;;;;;5.68;75.03;101952.25;5058911;28;45494;-73
2022/01/31 07:22:51;;;;;;;;;3.50;3.00;;;;;5.72;74.79;101941.31;5057171;28;45472;-74
2022/01/31 07:25:37;;;;;;;;;3.50;3.00;;;;;5.57;75.15;101907.44;5059862;28;45421;-73
2022/01/31 07:28:07;;;;;;;;;4.50;4.50;;;;;5.72;74.97;101936.13;5060057;28;45306;-74
2022/01/31 07:30:35;;;;;;;;;2.75;2.75;;;;;5.71;75.41;101936.94;5063840;28;46216;-74
2022/01/31 07:33:01;;;;;;;;;3.75;3.00;;;;;5.59;75.16;101925.69;5058040;28;45609;-74
2022/01/31 07:35:27;;;;;;;;;7.00;3.50;;;;;5.55;75.50;101918.44;5058566;28;45643;-73
2022/01/31 07:37:53;;;;;;;;;2.00;1.50;;;;;5.52;75.16;101920.84;5057472;28;45501;-74
2022/01/31 07:40:19;;;;;;;;;1.00;1.00;;;;;5.55;75.54;101939.19;5058910;28;45489;-74
2022/01/31 07:42:44;;;;;;;;;1.00;1.00;;;;;5.72;75.99;101951.69;5058564;28;45416;-74
2022/01/31 07:45:10;;;;;;;;;0.75;0.75;;;;;5.70;75.14;101942.91;5025123;27;45456;-74
2022/01/31 07:47:35;;;;;;;;;2.25;2.00;;;;;5.76;75.33;101969.25;5051081;28;45429;-73
2022/01/31 07:50:04;;;;;;;;;1.25;1.25;;;;;5.82;75.54;101978.28;5038510;28;46130;-75
2022/01/31 07:52:29;;;;;;;;;2.00;1.25;;;;;5.75;75.55;101954.50;5038570;28;45355;-74
2022/01/31 07:54:55;;;;;;;;;1.75;1.00;;;;;5.85;75.42;101966.44;5038620;28;45703;-73
2022/01/31 07:57:24;;;;;;;;;1.75;1.00;;;;;5.92;75.31;101992.03;5038695;28;45292;-74
2022/01/31 07:59:50;;;;;;;;;6.00;6.00;;;;;5.66;75.39;101935.69;5038476;28;46742;-76
2022/01/31 08:02:15;;;;;;;;;6.50;5.00;;;;;5.04;75.61;101825.81;5038165;28;45568;-75
2022/01/31 08:04:41;;;;;;;;;7.50;7.50;;;;;5.82;75.55;101955.84;5038422;28;45467;-75
2022/01/31 08:07:06;;;;;;;;;5.50;3.00;;;;;5.50;75.04;101888.72;5037418;28;45382;-76
2022/01/31 08:09:32;;;;;;;;;1.75;1.00;;;;;6.15;75.13;101988.50;5051067;28;45540;-75
2022/01/31 08:11:58;;;;;;;;;0.00;0.00;;;;;6.11;75.39;101983.00;5074390;28;45382;-75
2022/01/31 08:14:23;;;;;;;;;2.00;1.00;;;;;6.20;75.25;101981.03;5058772;28;45753;-77
2022/01/31 08:16:49;;;;;;;;;0.50;0.50;;;;;5.83;75.34;101920.44;5058209;28;45829;-79
2022/01/31 08:19:14;;;;;;;;;1.00;1.00;;;;;6.37;75.19;101997.81;5056675;28;45338;-75
2022/01/31 08:21:40;;;;;;;;;2.50;1.75;;;;;6.41;75.10;101991.16;5058413;28;45440;-75
2022/01/31 08:24:06;;;;;;;;;5.50;5.50;;;;;6.46;75.24;102001.03;5058266;28;46023;-76
2022/01/31 08:26:32;;;;;;;;;4.00;2.50;;;;;6.26;74.76;101965.91;5059017;28;45311;-76
2022/01/31 08:29:02;;;;;;;;;5.00;4.25;;;;;6.59;74.92;102013.19;5057700;28;46435;-75
2022/01/31 08:31:37;;;;;;;;;2.25;2.25;;;;;6.67;74.71;102011.13;5057151;28;45520;-75
2022/01/31 08:36:43;;;;;;;;;2.75;1.75;;;;;6.72;74.59;102004.53;5058013;28;45414;-75
2022/01/31 08:39:17;;;;;;;;;0.75;0.75;;;;;6.86;74.60;102034.06;5058164;28;45592;-74
2022/01/31 08:41:45;;;;;;;;;6.50;4.00;;;;;6.92;74.51;102034.47;5057520;28;45479;-75
2022/01/31 08:44:14;;;;;;;;;1.00;1.00;;;;;6.99;74.37;102031.53;5058060;28;45441;-74
2022/01/31 08:46:40;;;;;;;;;6.00;5.50;;;;;6.90;74.23;101992.84;5058256;28;45466;-74
2022/01/31 08:49:10;;;;;;;;;6.25;4.50;;;;;7.02;74.22;101991.84;5057685;28;46306;-74
2022/01/31 08:51:37;;;;;;;;;8.00;7.50;;;;;7.35;74.29;102021.81;5057613;28;45893;-74
2022/01/31 08:54:07;;;;;;;;;8.75;6.75;;;;;7.43;73.88;102023.22;5058414;28;45451;-73
2022/01/31 08:56:44;;;;;;;;;13.50;12.50;;;;;7.49;74.07;102020.13;5058344;28;45517;-74
2022/01/31 08:59:16;;;;;;;;;14.00;12.25;;;;;7.56;73.78;102022.34;5057774;28;45711;-74
2022/01/31 09:01:52;;;;;;;;;22.00;20.50;;;;;7.59;73.88;102016.44;5057350;28;45426;-75
2022/01/31 09:04:41;;;;;;;;;53.50;42.00;;;;;7.60;73.56;102007.81;5057249;28;45766;-73
2022/01/31 09:07:07;;;;;;;;;43.00;36.50;;;;;7.70;73.47;102005.94;5057679;28;45396;-74
2022/01/31 09:09:32;;;;;;;;;18.00;16.25;;;;;7.78;73.12;102003.81;5058216;28;45428;-78
2022/01/31 09:11:58;;;;;;;;;18.00;15.75;;;;;7.81;73.32;101998.81;5059166;28;45482;-79
2022/01/31 09:14:25;;;;;;;;;26.50;25.25;;;;;7.99;73.29;102006.00;5058366;28;45433;-76
2022/01/31 09:16:51;;;;;;;;;35.75;30.25;;;;;7.93;73.09;101983.06;5057580;28;45572;-76
2022/01/31 09:19:17;;;;;;;;;16.25;15.00;;;;;8.06;73.07;101992.56;5056819;28;46221;-76
2022/01/31 09:21:44;;;;;;;;;8.00;7.00;;;;;8.21;72.73;102000.44;5057204;28;45398;-73
2022/01/31 09:24:10;;;;;;;;;30.00;24.25;;;;;8.28;72.60;101994.81;5057155;28;45537;-78
2022/01/31 09:26:37;;;;;;;;;24.00;22.00;;;;;8.35;72.23;101995.28;5057645;28;45629;-76
2022/01/31 09:29:03;;;;;;;;;26.75;25.50;;;;;8.48;72.14;101996.97;5057704;28;45519;-73
2022/01/31 09:31:28;;;;;;;;;15.75;12.75;;;;;8.59;71.45;102001.94;5056795;28;45519;-73
2022/01/31 09:33:54;;;;;;;;;23.50;17.00;;;;;8.65;71.52;102004.94;5057059;28;45430;-73
2022/01/31 09:36:22;;;;;;;;;15.75;15.00;;;;;8.39;71.14;101956.41;5057111;28;45571;-75
2022/01/31 09:38:48;;;;;;;;;11.50;11.25;;;;;8.70;71.42;102006.13;5057166;28;46559;-71
2022/01/31 09:41:20;;;;;;;;;14.25;13.75;;;;;8.70;71.00;101991.38;5057200;28;45498;-73
2022/01/31 09:47:18;;;;;;;;;3.00;3.00;;;;;9.18;70.94;101990.72;5056588;28;45446;-73
2022/01/31 09:49:44;;;;;;;;;13.00;12.00;;;;;9.38;70.12;101978.84;5055907;28;45601;-73
2022/01/31 09:52:10;;;;;;;;;6.25;6.25;;;;;9.51;69.72;101979.63;5057523;28;45227;-73
2022/01/31 09:54:35;;;;;;;;;4.00;3.00;;;;;9.60;69.38;101988.78;5057898;28;45283;-73
2022/01/31 09:57:01;;;;;;;;;0.00;0.00;;;;;9.68;69.19;101977.06;5056908;28;45338;-73
2022/01/31 09:59:27;;;;;;;;;1.33;1.00;;;;;9.72;68.84;101984.25;5057239;28;46120;-77
2022/01/31 10:01:54;;;;;;;;;5.00;3.25;;;;;9.74;69.07;101980.91;5058996;28;45488;-73
2022/01/31 10:04:34;;;;;;;;;5.00;4.25;;;;;9.64;69.25;101949.91;5055893;27;45518;-74
2022/01/31 10:07:02;;;;;;;;;3.33;2.00;;;;;9.90;69.38;101985.28;5056306;28;45505;-74
2022/01/31 10:09:31;;;;;;;;;1.33;1.33;;;;;10.05;68.80;101985.25;5056278;28;45475;-73
2022/01/31 10:12:10;;;;;;;;;1.00;1.00;;;;;10.15;68.62;101981.44;5055775;28;44891;-73
2022/01/31 10:17:27;;;;;;;;;1.00;0.33;;;;;10.30;68.18;101981.38;5055867;28;45355;-74
2022/01/31 10:19:55;;;;;;;;;4.00;3.00;;;;;10.36;67.94;101973.88;5056138;28;46099;-74
2022/01/31 10:22:25;;;;;;;;;21.75;18.75;;;;;10.50;67.96;101965.09;5055962;28;45587;-73
2022/01/31 10:24:53;;;;;;;;;11.00;10.25;;;;;10.62;67.55;101969.13;5056133;28;45551;-74
2022/01/31 10:27:28;;;;;;;;;10.50;10.00;;;;;10.63;67.59;101961.38;5056392;28;45427;-74
2022/01/31 10:30:10;;;;;;;;;12.50;11.25;;;;;10.83;67.08;101975.50;5055576;28;46309;-74
2022/01/31 10:32:39;;;;;;;;;11.75;10.25;;;;;10.95;66.79;101973.50;5056118;28;45433;-74
2022/01/31 10:35:07;;;;;;;;;8.00;7.00;;;;;11.05;67.05;101972.25;5056224;28;45511;-74
2022/01/31 10:37:36;;;;;;;;;8.00;6.50;;;;;11.02;66.28;101934.59;5056946;28;45274;-75
2022/01/31 10:45:52;;;;;;;;;16.75;14.50;;;;;11.40;65.60;101956.53;5056339;28;45508;-75
2022/01/31 10:53:57;;;;;;;;;16.00;15.50;;;;;11.47;65.08;101933.34;5059745;28;45648;-74
2022/01/31 10:56:24;;;;;;;;;2.00;1.67;;;;;11.61;64.96;101934.00;5061194;28;46104;-73
2022/01/31 10:58:58;;;;;;;;;8.00;7.25;;;;;11.49;65.05;101902.91;5059289;28;45568;-73
2022/01/31 11:01:24;;;;;;;;;8.00;8.00;;;;;11.60;64.90;101927.00;5059148;28;45560;-75
2022/01/31 11:03:51;;;;;;;;;13.50;13.25;;;;;11.74;64.03;101918.09;5059492;28;45430;-75
2022/01/31 11:06:19;;;;;;;;;11.50;11.00;;;;;11.68;64.54;101891.63;5058249;28;45369;-74
2022/01/31 11:08:45;;;;;;;;;6.33;6.33;;;;;11.69;64.18;101882.03;5059881;28;45414;-75
2022/01/31 11:11:11;;;;;;;;;6.33;5.33;;;;;11.95;63.96;101898.97;5059530;28;46058;-75
2022/01/31 11:13:37;;;;;;;;;25.75;22.25;;;;;12.27;63.72;101912.63;5059671;28;45303;-74
2022/01/31 11:16:06;;;;;;;;;13.50;12.00;;;;;12.19;63.09;101877.34;5059818;28;45452;-75
2022/01/31 11:18:34;;;;;;;;;10.75;10.25;;;;;12.29;62.91;101864.72;5059782;28;45504;-75
2022/01/31 11:21:03;;;;;;;;;11.00;10.33;;;;;12.21;62.47;101866.09;5060091;28;45429;-74
2022/01/31 11:23:32;;;;;;;;;6.00;5.00;;;;;12.29;63.03;101890.03;5059427;28;45545;-74
2022/01/31 11:26:01;;;;;;;;;4.67;4.67;;;;;12.04;64.26;101870.59;5058943;28;45342;-75
2022/01/31 11:28:31;;;;;;;;;3.33;3.00;;;;;12.07;64.58;101890.78;5058592;28;45472;-76
2022/01/31 11:30:57;;;;;;;;;4.67;4.00;;;;;11.97;64.92;101886.84;5058461;28;46337;-76
2022/01/31 11:33:23;;;;;;;;;4.00;4.00;;;;;11.79;65.76;101876.41;5058621;28;45461;-78
2022/01/31 11:35:50;;;;;;;;;1.00;1.00;;;;;11.65;66.18;101870.50;5058657;28;45492;-76
2022/01/31 11:38:16;;;;;;;;;20.25;18.00;;;;;11.22;66.95;101829.25;5059288;28;45472;-77
2022/01/31 11:40:44;;;;;;;;;2.00;1.67;;;;;11.40;67.35;101891.09;5059152;28;45485;-77
2022/01/31 11:43:12;;;;;;;;;1.00;0.33;;;;;11.32;67.06;101889.03;5058255;28;45362;-77
2022/01/31 11:45:40;;;;;;;;;9.50;8.50;;;;;11.25;67.74;101886.06;5059670;28;45523;-77
2022/01/31 11:48:27;;;;;;;;;7.50;7.00;;;;;11.24;68.30;101872.09;5059878;28;45480;-77